Terminal Aerodrome Forecast
Issued by NWS Boise, ID

Home | Current Version | Previous Version | Text Only | Print | Product List | Glossary On
Versions: 1 2 3 4 5 6 7 8 9 10 11 12 13 14 15 16 17 18 19 20 21 22 23 24 25 26 27
000
FTUS45 KBOI 241720
TAFBNO
TAF
KBNO 241720Z 2418/2518 22010KT P6SM -SHRA BKN010 OVC035
      TEMPO 2418/2420 VRB25KT -TSRA SCT010 OVC030CB
     FM242000 27015G25KT P6SM -SHRA OVC050
     FM250200 25012KT P6SM VCSH BKN050
     FM251000 23010KT P6SM SCT050=

USA.gov is the U.S. government's official web portal to all federal, state and local government web resources and services.